In Rescue
 
Open Full Screen Window  High Contrast Mode
Wind Gusting 00 knots
08
November 29, 2022 8:58 AM CST
Weather Information
Wind Direction
  320 °
Wind Speed
  08 kt (9 mph)
Wind Gust
  00 kt (0 mph)
Altimeter
29.73 in
Visibility
10 SM
Temperature
-05° C
23° F
Dewpoint
-10° C
14° F
Humidity
68%
1hr Rain Fall
00.00 in.
24hr Rain Fall
00.00 in.
Sky Condition
Overcast @ 5,500 ft
Scattered @ 4,700 ft
VFR

METAR KPEX 291458Z AUTO 32008KT 10SM SCT047 OVC055 M05/M10 A2973 RMK AO2

FAA Disclaimer: The data displayed is for advisory purposes only and is not to be used for flight planning or operations.